Time;durP1;ratioP1;P1;durP2;ratioP2;P2;SDS_P1;SDS_P2;PMS_P1;PMS_P2;Temp;Humidity;BMP_temperature;BMP_pressure;BME280_temperature;BME280_humidity;BME280_pressure;Samples;Min_cycle;Max_cycle;Signal;HPM_P1;HPM_P2
2022/09/24 00:02:20;;;;;;;4.15;3.85;;;10.00;99.90;;;;;;5052704;28;20208;-85
2022/09/24 00:04:49;;;;;;;4.28;3.45;;;10.00;99.90;;;;;;5053593;28;20213;-85
2022/09/24 00:07:18;;;;;;;4.75;3.95;;;10.00;99.90;;;;;;5052961;28;20209;-85
2022/09/24 00:09:46;;;;;;;4.13;3.72;;;10.00;99.90;;;;;;5052851;28;20225;-86
2022/09/24 00:12:15;;;;;;;4.07;3.70;;;10.00;99.90;;;;;;5053182;28;20225;-86
2022/09/24 00:14:43;;;;;;;8.07;4.25;;;9.90;99.90;;;;;;5053217;28;20232;-86
2022/09/24 00:17:11;;;;;;;3.80;3.47;;;9.90;99.90;;;;;;5052880;28;20292;-85
2022/09/24 00:19:39;;;;;;;4.45;4.05;;;9.90;99.90;;;;;;5052512;28;20229;-85
2022/09/24 00:22:09;;;;;;;4.30;3.90;;;9.90;99.90;;;;;;5052745;28;20208;-87
2022/09/24 00:27:24;;;;;;;4.00;3.20;;;9.80;99.90;;;;;;5052926;28;20208;-85
2022/09/24 00:29:52;;;;;;;3.90;3.53;;;9.70;99.90;;;;;;5052487;28;20248;-84
2022/09/24 00:32:22;;;;;;;4.47;3.30;;;9.70;99.90;;;;;;5052508;28;20230;-85
2022/09/24 00:34:52;;;;;;;5.13;4.30;;;9.70;99.90;;;;;;5052643;28;20210;-85
2022/09/24 00:37:21;;;;;;;4.07;3.70;;;9.70;99.90;;;;;;5052611;28;20213;-85
2022/09/24 00:39:50;;;;;;;3.72;3.42;;;9.70;99.90;;;;;;5052280;28;20236;-85
2022/09/24 00:42:19;;;;;;;4.18;3.83;;;9.60;99.90;;;;;;5052444;28;20210;-85
2022/09/24 00:44:53;;;;;;;6.07;4.60;;;9.60;99.90;;;;;;5052785;28;20209;-85
2022/09/24 00:47:29;;;;;;;5.63;4.30;;;9.60;99.90;;;;;;5052716;28;20210;-85
2022/09/24 00:50:11;;;;;;;3.70;3.38;;;9.60;99.90;;;;;;5052101;28;20229;-85
2022/09/24 00:52:45;;;;;;;5.22;4.07;;;9.60;99.90;;;;;;5052405;28;20234;-85
2022/09/24 00:55:15;;;;;;;4.78;3.75;;;9.50;99.90;;;;;;5052578;28;20217;-85
2022/09/24 00:57:44;;;;;;;4.78;3.83;;;9.50;99.90;;;;;;5052575;28;20209;-85
2022/09/24 01:00:14;;;;;;;3.45;3.17;;;9.40;99.90;;;;;;5052188;28;20237;-85
2022/09/24 01:02:46;;;;;;;5.40;3.70;;;9.40;99.90;;;;;;5052580;28;20208;-85
2022/09/24 01:05:14;;;;;;;4.20;3.80;;;9.40;99.90;;;;;;5052352;28;20213;-85
2022/09/24 01:07:46;;;;;;;3.92;3.63;;;9.30;99.90;;;;;;5052538;28;20209;-84
2022/09/24 01:10:46;;;;;;;5.07;3.78;;;9.30;99.90;;;;;;5052177;28;20230;-85
2022/09/24 01:13:16;;;;;;;6.70;4.78;;;9.30;99.90;;;;;;5052534;28;20225;-85
2022/09/24 01:15:48;;;;;;;4.35;3.30;;;9.30;99.90;;;;;;5056623;28;20214;-85
2022/09/24 01:18:21;;;;;;;3.92;3.60;;;9.40;99.90;;;;;;5057006;28;20265;-85
2022/09/24 01:21:19;;;;;;;5.13;4.05;;;9.30;99.90;;;;;;5056043;28;20226;-85
2022/09/24 01:24:15;;;;;;;4.18;3.67;;;9.30;99.90;;;;;;5056083;28;20206;-85
2022/09/24 01:26:55;;;;;;;12.05;3.97;;;9.30;99.90;;;;;;5056247;28;20201;-85
2022/09/24 01:29:32;;;;;;;3.72;3.42;;;9.30;99.90;;;;;;5055834;28;20248;-85
2022/09/24 01:32:06;;;;;;;4.32;3.80;;;9.30;99.90;;;;;;5056035;28;20228;-85
2022/09/24 01:34:40;;;;;;;3.60;3.28;;;9.30;99.90;;;;;;5056296;28;20205;-85
2022/09/24 01:37:09;;;;;;;3.47;3.17;;;9.30;99.90;;;;;;5056319;28;20219;-85
2022/09/24 01:39:39;;;;;;;6.93;3.53;;;9.30;99.90;;;;;;5055763;28;20226;-84
2022/09/24 01:42:09;;;;;;;3.13;2.83;;;9.30;99.90;;;;;;5055864;28;20204;-85
2022/09/24 01:44:43;;;;;;;3.78;3.25;;;9.30;99.90;;;;;;5056056;28;20248;-85
2022/09/24 01:47:18;;;;;;;5.05;3.92;;;9.20;99.90;;;;;;5056000;28;20240;-85
2022/09/24 01:49:47;;;;;;;6.43;3.83;;;9.20;99.90;;;;;;5055491;28;20237;-85
2022/09/24 01:52:20;;;;;;;5.25;3.70;;;9.20;99.90;;;;;;5055336;28;20236;-85
2022/09/24 01:54:51;;;;;;;6.07;3.40;;;9.20;99.90;;;;;;5055777;28;20205;-85
2022/09/24 01:57:23;;;;;;;3.17;2.97;;;9.20;99.90;;;;;;5055914;28;20210;-85
2022/09/24 01:59:59;;;;;;;3.03;2.80;;;9.10;99.90;;;;;;5055485;28;20270;-85
2022/09/24 02:02:33;;;;;;;3.88;3.58;;;9.10;99.90;;;;;;5056191;28;20292;-85
2022/09/24 02:05:06;;;;;;;3.10;2.85;;;9.10;99.90;;;;;;5055398;28;20212;-85
2022/09/24 02:07:39;;;;;;;3.65;3.03;;;9.10;99.90;;;;;;5055387;28;20205;-85
2022/09/24 02:10:15;;;;;;;3.63;3.33;;;9.10;99.90;;;;;;5055262;28;20221;-85
2022/09/24 02:12:46;;;;;;;3.78;3.42;;;9.10;99.90;;;;;;5055151;28;20220;-85
2022/09/24 02:15:19;;;;;;;5.78;3.25;;;9.10;99.90;;;;;;5055208;28;20216;-85
2022/09/24 02:17:53;;;;;;;3.28;3.03;;;9.00;99.90;;;;;;5055373;28;20202;-85
2022/09/24 02:20:23;;;;;;;3.25;2.95;;;9.00;99.90;;;;;;5054790;28;20226;-85
2022/09/24 02:22:53;;;;;;;2.88;2.58;;;9.00;99.90;;;;;;5055516;28;20202;-85
2022/09/24 02:25:25;;;;;;;3.75;3.45;;;9.00;99.90;;;;;;5055133;28;20205;-85
2022/09/24 02:27:53;;;;;;;3.58;3.25;;;9.00;99.90;;;;;;5054960;28;20209;-85
2022/09/24 02:30:23;;;;;;;3.78;3.47;;;9.00;99.90;;;;;;5054511;28;20233;-85
2022/09/24 02:32:54;;;;;;;5.18;3.60;;;9.00;99.90;;;;;;5054747;28;20225;-85
2022/09/24 02:35:22;;;;;;;5.60;3.83;;;9.00;99.90;;;;;;5055467;28;20214;-85
2022/09/24 02:37:50;;;;;;;4.32;3.90;;;9.00;99.90;;;;;;5055061;28;20300;-87
2022/09/24 02:40:18;;;;;;;3.67;3.38;;;9.00;99.90;;;;;;5054676;28;20235;-85
2022/09/24 02:42:47;;;;;;;3.75;3.45;;;9.00;99.90;;;;;;5054808;28;20203;-84
2022/09/24 02:45:15;;;;;;;4.05;3.75;;;9.00;99.90;;;;;;5055073;28;20209;-85
2022/09/24 02:47:45;;;;;;;4.38;3.97;;;8.90;99.90;;;;;;5054678;28;20210;-85
2022/09/24 02:50:13;;;;;;;3.90;3.60;;;9.00;99.90;;;;;;5054076;28;20295;-87
2022/09/24 02:52:41;;;;;;;7.88;4.25;;;9.00;99.90;;;;;;5054235;28;20218;-85
2022/09/24 02:55:09;;;;;;;3.83;3.53;;;9.00;99.90;;;;;;5054599;28;20213;-85
2022/09/24 02:57:37;;;;;;;3.40;3.20;;;9.00;99.90;;;;;;5054455;28;20206;-85
2022/09/24 03:00:06;;;;;;;6.88;3.85;;;9.00;99.90;;;;;;5054243;28;20233;-85
2022/09/24 03:02:35;;;;;;;4.20;3.80;;;9.00;99.90;;;;;;5054018;28;20209;-85
2022/09/24 03:05:05;;;;;;;3.95;3.53;;;9.00;99.90;;;;;;5054013;28;20213;-85
2022/09/24 03:07:33;;;;;;;3.50;3.30;;;9.00;99.90;;;;;;5054474;28;20206;-85
2022/09/24 03:10:01;;;;;;;3.92;3.60;;;9.10;99.90;;;;;;5053882;28;20237;-86
2022/09/24 03:12:29;;;;;;;3.45;3.15;;;9.10;99.90;;;;;;5054247;28;20242;-85
2022/09/24 03:14:58;;;;;;;4.68;2.88;;;9.10;99.90;;;;;;5054268;28;20206;-85
2022/09/24 03:17:26;;;;;;;3.75;2.80;;;9.10;99.90;;;;;;5053849;28;20325;-85
2022/09/24 03:19:54;;;;;;;2.67;2.47;;;9.10;99.90;;;;;;5053894;28;20226;-86
2022/09/24 03:22:24;;;;;;;3.03;2.72;;;9.10;99.90;;;;;;5053828;28;20213;-86
2022/09/24 03:24:52;;;;;;;3.75;3.25;;;9.00;99.90;;;;;;5054128;28;20213;-85
2022/09/24 03:27:21;;;;;;;3.95;2.90;;;9.00;99.90;;;;;;5053768;28;20209;-85
2022/09/24 03:32:34;;;;;;;3.63;3.33;;;8.90;99.90;;;;;;5053482;28;20205;-85
2022/09/24 03:35:03;;;;;;;3.42;3.13;;;9.00;99.90;;;;;;5053350;28;20232;-84
2022/09/24 03:37:35;;;;;;;4.30;3.88;;;9.00;99.90;;;;;;5053282;28;20214;-85
2022/09/24 03:40:05;;;;;;;3.65;3.35;;;9.00;99.90;;;;;;5053297;28;20229;-85
2022/09/24 03:42:34;;;;;;;3.88;3.50;;;9.00;99.90;;;;;;5053186;28;20205;-85
2022/09/24 03:45:02;;;;;;;5.07;3.45;;;9.00;99.90;;;;;;5053671;28;20210;-85
2022/09/24 03:47:30;;;;;;;4.28;3.60;;;8.90;99.90;;;;;;5053364;28;20217;-85
2022/09/24 03:49:59;;;;;;;3.40;3.10;;;8.90;99.90;;;;;;5053189;28;20221;-84
2022/09/24 03:52:27;;;;;;;3.92;3.03;;;8.90;99.90;;;;;;5053106;28;20206;-85
2022/09/24 03:54:57;;;;;;;2.92;2.72;;;8.90;99.90;;;;;;5053047;28;20256;-85
2022/09/24 03:57:25;;;;;;;4.80;3.72;;;8.90;99.90;;;;;;5053200;28;20209;-85
2022/09/24 03:59:53;;;;;;;4.45;3.60;;;8.80;99.90;;;;;;5052923;28;20256;-85
2022/09/24 04:02:21;;;;;;;6.55;3.65;;;8.80;99.90;;;;;;5053200;28;20216;-85
2022/09/24 04:04:49;;;;;;;2.80;2.60;;;8.80;99.90;;;;;;5053308;28;20213;-85
2022/09/24 04:07:17;;;;;;;3.50;3.20;;;8.80;99.90;;;;;;5052920;28;20198;-85
2022/09/24 04:09:45;;;;;;;2.92;2.72;;;8.80;99.90;;;;;;5052672;28;20230;-85
2022/09/24 04:12:15;;;;;;;4.15;3.50;;;8.80;99.90;;;;;;5053492;28;20210;-85
2022/09/24 04:14:43;;;;;;;3.53;3.22;;;8.80;99.90;;;;;;5052793;28;20229;-85
2022/09/24 04:17:13;;;;;;;4.22;3.42;;;8.80;99.90;;;;;;5052989;28;20214;-85
2022/09/24 04:19:41;;;;;;;3.72;2.95;;;8.80;99.90;;;;;;5052815;28;20229;-85
2022/09/24 04:22:09;;;;;;;3.15;2.92;;;8.80;99.90;;;;;;5052739;28;20212;-86
2022/09/24 04:24:37;;;;;;;4.35;3.20;;;8.80;99.90;;;;;;5053122;28;20205;-86
2022/09/24 04:27:05;;;;;;;3.13;2.85;;;8.80;99.90;;;;;;5052632;28;20209;-85
2022/09/24 04:29:35;;;;;;;2.63;2.42;;;8.70;99.90;;;;;;5052620;28;20253;-85
2022/09/24 04:32:03;;;;;;;4.47;3.92;;;8.80;99.90;;;;;;5052797;28;20229;-85
2022/09/24 04:34:32;;;;;;;2.88;2.65;;;8.70;99.90;;;;;;5052402;28;20233;-86
2022/09/24 04:37:00;;;;;;;3.67;2.92;;;8.70;99.90;;;;;;5052624;28;20209;-85
2022/09/24 04:39:28;;;;;;;2.58;2.30;;;8.80;99.90;;;;;;5052683;28;20221;-86
2022/09/24 04:41:56;;;;;;;3.13;2.60;;;8.70;99.90;;;;;;5052604;28;20210;-85
2022/09/24 04:44:26;;;;;;;4.30;3.47;;;8.70;99.90;;;;;;5052383;28;20201;-85
2022/09/24 04:47:02;;;;;;;3.95;3.22;;;8.70;99.90;;;;;;5052482;28;20201;-85
2022/09/24 04:49:30;;;;;;;4.18;3.45;;;8.70;99.90;;;;;;5052200;28;20250;-85
2022/09/24 04:51:58;;;;;;;3.38;3.08;;;8.70;99.90;;;;;;5052374;28;20208;-85
2022/09/24 04:54:28;;;;;;;3.67;3.38;;;8.70;99.90;;;;;;5052325;28;20224;-85
2022/09/24 04:56:57;;;;;;;2.33;2.20;;;8.70;99.90;;;;;;5052714;28;20209;-85
2022/09/24 04:59:27;;;;;;;3.10;2.80;;;8.60;99.90;;;;;;5052132;28;20236;-85
2022/09/24 05:01:57;;;;;;;3.70;3.08;;;8.60;99.90;;;;;;5052402;28;20210;-85
2022/09/24 05:04:25;;;;;;;5.53;3.28;;;8.60;99.90;;;;;;5052135;28;20244;-85
2022/09/24 05:06:54;;;;;;;2.95;2.67;;;8.50;99.90;;;;;;5052270;28;20216;-80
2022/09/24 05:09:22;;;;;;;3.78;3.40;;;8.60;99.90;;;;;;5052148;28;20241;-80
2022/09/24 05:11:50;;;;;;;3.50;3.20;;;8.60;99.90;;;;;;5052441;28;20240;-80
2022/09/24 05:14:19;;;;;;;2.88;2.67;;;8.60;99.90;;;;;;5052085;28;20214;-81
2022/09/24 05:16:47;;;;;;;3.25;2.95;;;8.60;99.90;;;;;;5052161;28;20209;-80
2022/09/24 05:19:17;;;;;;;3.85;3.55;;;8.70;99.90;;;;;;5051953;28;20229;-80
2022/09/24 05:21:45;;;;;;;2.70;2.50;;;8.60;99.90;;;;;;5052099;28;20210;-80
2022/09/24 05:24:13;;;;;;;3.53;3.22;;;8.70;99.90;;;;;;5052530;28;20221;-80
2022/09/24 05:29:27;;;;;;;3.92;3.60;;;8.70;99.90;;;;;;5051819;28;20241;-80
2022/09/24 05:31:55;;;;;;;3.10;2.80;;;8.70;99.90;;;;;;5052185;28;20208;-80
2022/09/24 05:34:25;;;;;;;3.17;2.88;;;8.70;99.90;;;;;;5051866;28;20222;-80
2022/09/24 05:36:53;;;;;;;3.65;2.88;;;8.70;99.90;;;;;;5052353;28;20202;-80
2022/09/24 05:39:21;;;;;;;2.88;2.67;;;8.70;99.90;;;;;;5051735;28;20240;-80
2022/09/24 05:41:49;;;;;;;4.30;3.63;;;8.80;99.90;;;;;;5051729;28;20206;-80
2022/09/24 05:44:20;;;;;;;8.25;3.42;;;8.80;99.90;;;;;;5051626;28;20202;-80
2022/09/24 05:46:49;;;;;;;4.03;3.58;;;8.90;99.90;;;;;;5052288;28;20206;-80
2022/09/24 05:49:18;;;;;;;3.60;3.30;;;8.90;99.90;;;;;;5051593;28;20232;-79
2022/09/24 05:51:53;;;;;;;3.78;2.97;;;9.00;99.90;;;;;;5052017;28;20288;-84
2022/09/24 05:54:21;;;;;;;3.17;2.90;;;9.10;99.90;;;;;;5051921;28;20274;-80
2022/09/24 05:56:50;;;;;;;4.78;2.88;;;9.10;99.90;;;;;;5051689;28;20217;-80
2022/09/24 05:59:18;;;;;;;3.88;3.50;;;9.20;99.90;;;;;;5052491;28;20226;-80
2022/09/24 06:01:47;;;;;;;4.45;4.05;;;9.30;99.90;;;;;;5055562;28;20202;-80
2022/09/24 06:04:16;;;;;;;6.30;4.28;;;9.30;99.90;;;;;;5055157;28;20210;-80
2022/09/24 06:06:44;;;;;;;5.90;4.53;;;9.30;99.90;;;;;;5055205;28;20212;-80
2022/09/24 06:09:14;;;;;;;4.22;3.88;;;9.40;99.90;;;;;;5055024;28;20308;-85
2022/09/24 06:11:43;;;;;;;7.57;5.05;;;9.40;99.90;;;;;;5055323;28;20209;-80
2022/09/24 06:14:11;;;;;;;4.65;4.15;;;9.40;99.90;;;;;;5055455;28;20209;-80
2022/09/24 06:16:40;;;;;;;3.95;3.67;;;9.40;99.90;;;;;;5055309;28;20212;-80
2022/09/24 06:19:08;;;;;;;4.57;4.18;;;9.40;99.90;;;;;;5054722;28;20225;-80
2022/09/24 06:21:36;;;;;;;13.05;4.32;;;9.50;99.90;;;;;;5055057;28;20209;-80
2022/09/24 06:24:05;;;;;;;5.00;4.53;;;9.50;99.90;;;;;;5054838;28;20224;-80
2022/09/24 06:26:35;;;;;;;4.60;4.15;;;9.50;99.90;;;;;;5055168;28;20205;-80
2022/09/24 06:29:04;;;;;;;5.32;3.88;;;9.50;99.90;;;;;;5054745;28;20252;-84
2022/09/24 06:31:33;;;;;;;4.20;3.83;;;9.50;99.90;;;;;;5055051;28;20263;-80
2022/09/24 06:34:03;;;;;;;4.47;4.07;;;9.60;99.90;;;;;;5054768;28;20221;-80
2022/09/24 06:36:31;;;;;;;6.35;4.65;;;9.70;99.90;;;;;;5054714;28;20229;-85
2022/09/24 06:38:59;;;;;;;4.75;4.35;;;9.80;99.90;;;;;;5054540;28;20226;-85
2022/09/24 06:41:27;;;;;;;4.15;3.78;;;9.90;99.90;;;;;;5054944;28;20206;-85
2022/09/24 06:43:57;;;;;;;4.25;3.95;;;10.00;99.90;;;;;;5054439;28;20209;-85
2022/09/24 06:46:27;;;;;;;4.70;4.35;;;10.10;99.90;;;;;;5054499;28;20224;-85
2022/09/24 06:48:55;;;;;;;5.68;4.53;;;10.20;99.90;;;;;;5054466;28;20221;-80
2022/09/24 06:51:26;;;;;;;5.18;4.68;;;10.30;99.90;;;;;;5054683;28;20213;-80
2022/09/24 06:53:55;;;;;;;6.03;3.65;;;10.50;99.90;;;;;;5054755;28;20214;-79
2022/09/24 06:56:23;;;;;;;7.25;4.50;;;10.60;99.90;;;;;;5054206;28;20236;-80
2022/09/24 06:58:51;;;;;;;3.90;3.60;;;10.70;99.90;;;;;;5054038;28;20308;-79
2022/09/24 07:01:21;;;;;;;4.45;4.05;;;10.80;99.90;;;;;;5054196;28;20206;-79
2022/09/24 07:03:49;;;;;;;5.72;4.93;;;10.90;99.90;;;;;;5054459;28;20225;-79
2022/09/24 07:06:17;;;;;;;5.68;4.55;;;10.90;99.90;;;;;;5053982;28;20194;-85
2022/09/24 07:08:51;;;;;;;7.70;4.32;;;11.00;99.90;;;;;;5054075;28;20218;-85
2022/09/24 07:11:19;;;;;;;5.40;4.90;;;11.00;99.90;;;;;;5052983;28;20232;-85
2022/09/24 07:13:47;;;;;;;11.10;5.28;;;11.00;99.90;;;;;;5053841;28;20214;-85
2022/09/24 07:16:15;;;;;;;5.03;4.50;;;11.10;99.90;;;;;;5054077;28;20229;-85
2022/09/24 07:18:45;;;;;;;5.00;4.60;;;11.00;99.90;;;;;;5054160;28;20229;-85
2022/09/24 07:21:14;;;;;;;5.32;4.82;;;11.10;99.90;;;;;;5054260;28;20212;-85
2022/09/24 07:23:42;;;;;;;5.13;4.30;;;11.20;99.90;;;;;;5053748;28;20210;-79
2022/09/24 07:26:10;;;;;;;5.80;4.85;;;11.30;99.90;;;;;;5053767;28;20202;-80
2022/09/24 07:28:38;;;;;;;7.80;5.55;;;11.40;99.90;;;;;;5053992;28;20221;-80
2022/09/24 07:31:07;;;;;;;4.63;4.22;;;11.40;99.90;;;;;;5053765;28;20216;-79
2022/09/24 07:33:41;;;;;;;6.20;4.82;;;11.50;99.90;;;;;;5054195;28;20205;-80
2022/09/24 07:36:11;;;;;;;6.88;5.65;;;11.60;99.90;;;;;;5053725;28;20214;-80
2022/09/24 07:38:39;;;;;;;6.38;5.55;;;11.70;99.90;;;;;;5053311;28;20237;-80
2022/09/24 07:41:10;;;;;;;4.97;4.47;;;11.80;99.90;;;;;;5053615;28;20206;-79
2022/09/24 07:43:38;;;;;;;6.43;4.78;;;11.90;99.90;;;;;;5053492;28;20216;-85
2022/09/24 07:46:07;;;;;;;5.57;4.95;;;12.00;99.90;;;;;;5053627;28;20202;-86
2022/09/24 07:48:35;;;;;;;4.63;4.22;;;12.00;99.90;;;;;;5053212;28;20237;-85
2022/09/24 07:51:04;;;;;;;4.93;4.22;;;12.20;99.90;;;;;;5053482;28;20209;-86
2022/09/24 07:53:33;;;;;;;4.70;4.18;;;12.30;99.90;;;;;;5053418;28;20209;-86
2022/09/24 07:56:02;;;;;;;6.20;4.82;;;12.40;99.90;;;;;;5053179;28;20236;-85
2022/09/24 07:58:30;;;;;;;5.20;4.70;;;12.60;99.90;;;;;;5052808;28;20202;-85
2022/09/24 08:00:59;;;;;;;5.88;4.85;;;12.80;99.90;;;;;;5053474;28;20217;-85
2022/09/24 08:03:28;;;;;;;5.20;4.70;;;13.00;99.90;;;;;;5053550;28;20214;-80
2022/09/24 08:06:00;;;;;;;4.05;3.75;;;13.10;99.90;;;;;;5053135;28;20206;-85
2022/09/24 08:08:31;;;;;;;5.43;4.15;;;13.30;99.90;;;;;;5053165;28;20202;-85
2022/09/24 08:11:04;;;;;;;4.82;4.40;;;13.50;99.90;;;;;;5053049;28;20205;-79
2022/09/24 08:13:34;;;;;;;6.20;5.10;;;13.70;99.90;;;;;;5053173;28;20209;-85
2022/09/24 08:16:04;;;;;;;4.88;4.47;;;13.90;99.90;;;;;;5052793;28;20230;-85
2022/09/24 08:18:36;;;;;;;5.03;4.60;;;13.90;99.90;;;;;;5052674;28;20236;-85
2022/09/24 08:21:06;;;;;;;9.88;4.15;;;13.80;99.90;;;;;;5053031;28;20209;-80
2022/09/24 08:23:35;;;;;;;6.80;5.15;;;14.00;99.90;;;;;;5052252;28;20213;-80
2022/09/24 08:26:05;;;;;;;4.82;4.32;;;14.20;99.90;;;;;;5052887;28;20217;-79
2022/09/24 08:28:33;;;;;;;5.72;4.85;;;14.40;99.90;;;;;;5052749;28;20236;-80
2022/09/24 08:31:06;;;;;;;7.60;4.95;;;14.60;99.90;;;;;;5052921;28;20233;-80
2022/09/24 08:33:36;;;;;;;7.93;5.50;;;14.90;99.90;;;;;;5052910;28;20213;-80
2022/09/24 08:36:06;;;;;;;5.50;5.00;;;15.10;99.90;;;;;;5053109;28;20228;-80
2022/09/24 08:38:35;;;;;;;6.05;5.03;;;15.20;99.90;;;;;;5052623;28;20221;-80
2022/09/24 08:41:25;;;;;;;6.60;6.00;;;15.40;99.90;;;;;;5052197;28;20202;-85
2022/09/24 08:44:00;;;;;;;5.88;5.20;;;15.70;99.90;;;;;;5052503;28;20217;-85
2022/09/24 08:49:25;;;;;;;8.30;5.53;;;16.60;99.90;;;;;;5052194;28;20268;-85
2022/09/24 08:52:01;;;;;;;5.60;5.10;;;16.90;99.90;;;;;;5053171;28;20209;-85
2022/09/24 08:54:34;;;;;;;6.53;5.88;;;17.10;99.90;;;;;;5052312;28;20200;-85
2022/09/24 08:57:14;;;;;;;10.32;6.05;;;17.40;99.90;;;;;;5052369;28;20236;-85
2022/09/24 08:59:44;;;;;;;6.65;5.25;;;17.90;99.90;;;;;;5052292;28;20236;-85
2022/09/24 09:02:26;;;;;;;6.45;5.70;;;18.10;99.90;;;;;;5052587;28;20202;-85
2022/09/24 09:05:03;;;;;;;6.60;5.28;;;18.30;99.90;;;;;;5052651;28;20205;-85
2022/09/24 09:07:39;;;;;;;6.30;5.70;;;18.50;99.90;;;;;;5052638;28;20212;-85
2022/09/24 09:10:13;;;;;;;6.15;5.63;;;18.70;99.90;;;;;;5051981;28;20229;-85
2022/09/24 09:12:47;;;;;;;9.23;6.25;;;18.80;99.90;;;;;;5052336;28;20201;-85
2022/09/24 09:15:19;;;;;;;6.47;5.28;;;18.90;99.90;;;;;;5052291;28;20210;-85
2022/09/24 09:17:52;;;;;;;6.15;5.70;;;19.20;99.90;;;;;;5052210;28;20232;-85
2022/09/24 09:20:25;;;;;;;6.40;5.85;;;19.60;99.90;;;;;;5052133;28;20229;-85
2022/09/24 09:22:53;;;;;;;6.45;5.85;;;20.20;99.90;;;;;;5052398;28;20233;-80
2022/09/24 09:25:24;;;;;;;8.63;7.82;;;20.80;99.90;;;;;;5050953;28;20429;-80
2022/09/24 09:27:59;;;;;;;8.10;7.25;;;21.70;99.90;;;;;;5051249;28;20417;-79
2022/09/24 09:30:42;;;;;;;6.65;6.05;;;22.50;99.90;;;;;;5052335;28;20233;-79
2022/09/24 09:33:22;;;;;;;10.38;6.50;;;22.80;99.90;;;;;;5052109;28;20468;-79
2022/09/24 09:35:57;;;;;;;6.80;6.18;;;22.80;99.40;;;;;;5055610;28;20208;-79
2022/09/24 09:38:35;;;;;;;6.47;5.90;;;23.00;99.20;;;;;;5055734;28;20209;-79
2022/09/24 09:41:10;;;;;;;8.48;6.68;;;23.30;99.30;;;;;;5056142;28;20213;-79
2022/09/24 09:43:41;;;;;;;6.68;6.03;;;23.60;97.30;;;;;;5055652;28;20205;-79
2022/09/24 09:46:15;;;;;;;5.97;5.47;;;24.00;95.90;;;;;;5056001;28;20218;-79
2022/09/24 09:48:46;;;;;;;7.20;5.82;;;24.30;96.70;;;;;;5055508;28;20237;-79
2022/09/24 09:51:19;;;;;;;6.68;6.07;;;24.40;95.30;;;;;;5055724;28;20201;-79
2022/09/24 09:53:57;;;;;;;6.60;6.00;;;24.60;94.00;;;;;;5055722;28;20209;-79
2022/09/24 09:56:27;;;;;;;7.82;7.03;;;24.30;93.90;;;;;;5055708;28;20213;-79
2022/09/24 09:59:06;;;;;;;6.78;6.18;;;24.20;94.30;;;;;;5055199;28;20230;-79
2022/09/24 10:01:39;;;;;;;7.22;5.97;;;23.80;93.30;;;;;;5055656;28;20208;-79
2022/09/24 10:04:27;;;;;;;11.60;5.78;;;23.60;93.90;;;;;;5055507;28;20210;-79
2022/09/24 10:07:05;;;;;;;5.57;5.07;;;23.30;92.20;;;;;;5055415;28;20209;-79
2022/09/24 10:09:34;;;;;;;5.22;4.90;;;23.10;94.00;;;;;;5055391;28;20232;-79
2022/09/24 10:12:14;;;;;;;5.30;4.80;;;22.70;94.40;;;;;;5055331;28;20217;-79
2022/09/24 10:14:44;;;;;;;5.22;4.72;;;22.30;94.50;;;;;;5055539;28;20212;-79
2022/09/24 10:17:16;;;;;;;7.03;5.20;;;22.20;94.90;;;;;;5055266;28;20217;-79
2022/09/24 10:19:49;;;;;;;5.53;5.03;;;22.20;95.20;;;;;;5055160;28;20222;-79
2022/09/24 10:22:22;;;;;;;6.25;5.22;;;22.30;95.90;;;;;;5055089;28;20252;-79
2022/09/24 10:24:51;;;;;;;5.22;4.72;;;22.20;94.80;;;;;;5055075;28;20214;-79
2022/09/24 10:27:27;;;;;;;6.43;4.93;;;22.20;94.00;;;;;;5055308;28;20205;-79
2022/09/24 10:32:43;;;;;;;7.15;5.10;;;21.80;94.90;;;;;;5055148;28;20209;-79
2022/09/24 10:35:25;;;;;;;4.78;4.40;;;21.60;95.70;;;;;;5055035;28;20233;-79
2022/09/24 10:37:55;;;;;;;5.80;5.20;;;21.50;95.00;;;;;;5054611;28;20225;-79
2022/09/24 10:40:27;;;;;;;4.80;4.35;;;21.50;94.70;;;;;;5054586;28;20221;-79
2022/09/24 10:42:57;;;;;;;4.90;4.40;;;21.40;95.00;;;;;;5054754;28;20214;-79
2022/09/24 10:45:42;;;;;;;5.55;5.07;;;21.30;95.80;;;;;;5054648;28;20209;-78
2022/09/24 10:48:17;;;;;;;4.63;4.28;;;21.00;95.30;;;;;;5054774;28;20194;-79
2022/09/24 10:50:53;;;;;;;4.93;4.53;;;20.80;96.00;;;;;;5054473;28;20217;-79
2022/09/24 10:53:33;;;;;;;4.85;4.45;;;20.70;96.30;;;;;;5054582;28;20208;-80
2022/09/24 10:56:07;;;;;;;4.80;4.10;;;20.70;96.20;;;;;;5054857;28;20220;-79
2022/09/24 10:59:00;;;;;;;10.38;4.90;;;20.70;97.90;;;;;;5054011;28;20232;-79
2022/09/24 11:01:41;;;;;;;5.30;4.40;;;20.70;97.50;;;;;;5054523;28;20210;-79
2022/09/24 11:04:26;;;;;;;4.72;4.40;;;20.80;95.40;;;;;;5054418;28;20266;-79
2022/09/24 11:07:15;;;;;;;5.05;4.30;;;20.70;96.60;;;;;;5054535;28;20212;-81
2022/09/24 11:09:54;;;;;;;4.45;4.05;;;20.70;96.00;;;;;;5054500;28;20229;-81
2022/09/24 11:12:30;;;;;;;6.80;4.93;;;20.60;97.30;;;;;;5054204;28;20213;-80
2022/09/24 11:15:18;;;;;;;4.90;4.50;;;20.40;97.40;;;;;;5054379;28;20216;-80
2022/09/24 11:18:01;;;;;;;4.72;4.32;;;20.20;97.10;;;;;;5053920;28;20229;-80
2022/09/24 11:20:35;;;;;;;4.90;4.50;;;20.00;97.40;;;;;;5053944;28;20232;-80
2022/09/24 11:23:25;;;;;;;4.95;4.55;;;19.80;96.90;;;;;;5053997;28;20208;-80
2022/09/24 11:26:00;;;;;;;4.50;4.13;;;19.80;97.80;;;;;;5053908;28;20206;-80
2022/09/24 11:28:43;;;;;;;6.53;5.90;;;19.80;98.30;;;;;;5053629;28;20209;-80
2022/09/24 11:31:22;;;;;;;4.57;4.18;;;20.00;98.00;;;;;;5053896;28;20205;-81
2022/09/24 11:34:14;;;;;;;7.47;4.93;;;20.20;98.30;;;;;;5053825;28;20209;-80
2022/09/24 11:36:58;;;;;;;4.65;4.22;;;20.50;98.50;;;;;;5054004;28;20212;-80
2022/09/24 11:39:43;;;;;;;5.20;4.70;;;20.80;97.10;;;;;;5053644;28;20227;-80
2022/09/24 11:42:20;;;;;;;5.90;4.30;;;21.00;97.80;;;;;;5053282;28;20205;-79
2022/09/24 11:45:04;;;;;;;4.38;3.97;;;21.00;97.50;;;;;;5053501;28;20209;-79
2022/09/24 11:47:53;;;;;;;6.65;4.95;;;20.70;97.00;;;;;;5053748;28;20213;-81
2022/09/24 11:50:35;;;;;;;5.20;4.70;;;20.70;97.30;;;;;;5053324;28;20236;-81
2022/09/24 11:53:09;;;;;;;4.72;4.32;;;20.80;98.10;;;;;;5053446;28;20205;-80
2022/09/24 11:55:43;;;;;;;5.65;4.75;;;20.80;97.00;;;;;;5053732;28;20205;-79
2022/09/24 11:58:18;;;;;;;6.65;4.50;;;20.80;97.60;;;;;;5052606;28;20214;-79
2022/09/24 12:00:53;;;;;;;5.13;4.63;;;20.90;98.20;;;;;;5053159;28;20216;-79
2022/09/24 12:03:24;;;;;;;4.68;4.25;;;20.80;97.50;;;;;;5053441;28;20224;-79
2022/09/24 12:06:02;;;;;;;4.35;4.05;;;20.80;97.10;;;;;;5052958;28;20216;-79
2022/09/24 12:08:37;;;;;;;5.30;4.80;;;20.70;97.40;;;;;;5052807;28;20209;-79
2022/09/24 12:11:13;;;;;;;4.80;4.40;;;20.60;97.90;;;;;;5052964;28;20211;-79
2022/09/24 12:13:47;;;;;;;4.65;4.25;;;20.40;97.70;;;;;;5053167;28;20206;-79
2022/09/24 12:16:18;;;;;;;4.43;4.03;;;20.30;98.30;;;;;;5053320;28;20217;-79
2022/09/24 12:18:52;;;;;;;5.15;4.13;;;20.40;98.40;;;;;;5052436;28;20255;-80
2022/09/24 12:21:26;;;;;;;5.25;4.38;;;20.60;98.50;;;;;;5052688;28;20209;-80
2022/09/24 12:23:59;;;;;;;5.10;4.60;;;21.00;98.20;;;;;;5052900;28;20209;-81
2022/09/24 12:26:31;;;;;;;4.35;3.97;;;21.30;98.00;;;;;;5052794;28;20213;-80
2022/09/24 12:34:54;;;;;;;3.92;3.63;;;22.00;97.00;;;;;;5052635;28;20206;-80
2022/09/24 12:37:30;;;;;;;5.00;4.45;;;22.10;95.80;;;;;;5052583;28;20213;-80
2022/09/24 12:40:02;;;;;;;8.93;4.60;;;22.10;96.90;;;;;;5052553;28;20229;-80
2022/09/24 12:42:37;;;;;;;4.38;3.90;;;22.20;96.20;;;;;;5052585;28;20217;-80
2022/09/24 12:45:13;;;;;;;6.07;4.03;;;22.50;96.80;;;;;;5052871;28;20206;-80
2022/09/24 12:47:48;;;;;;;4.65;4.25;;;22.60;96.60;;;;;;5052548;28;20204;-80
2022/09/24 12:50:21;;;;;;;4.63;4.18;;;22.60;95.80;;;;;;5052126;28;20225;-80
2022/09/24 12:52:51;;;;;;;4.88;3.92;;;22.60;95.70;;;;;;5052493;28;20216;-80
2022/09/24 12:55:22;;;;;;;6.50;4.95;;;22.40;96.50;;;;;;5052493;28;20237;-80
2022/09/24 12:57:51;;;;;;;4.55;4.03;;;22.50;95.80;;;;;;5052583;28;20210;-80
2022/09/24 13:00:39;;;;;;;8.05;3.92;;;22.60;96.30;;;;;;5052041;28;20245;-79
2022/09/24 13:03:32;;;;;;;6.35;5.32;;;22.40;96.20;;;;;;5052106;28;20206;-79
2022/09/24 13:06:02;;;;;;;8.98;8.07;;;21.90;95.40;;;;;;5052387;28;20206;-80
2022/09/24 13:08:38;;;;;;;7.60;6.18;;;21.50;96.00;;;;;;5053335;28;20198;-79
2022/09/24 13:11:26;;;;;;;5.43;4.70;;;21.40;96.90;;;;;;5056643;28;20209;-79
2022/09/24 13:14:06;;;;;;;5.45;4.72;;;21.30;97.50;;;;;;5056653;28;20228;-80
2022/09/24 13:16:39;;;;;;;3.92;3.63;;;21.20;97.30;;;;;;5056446;28;20209;-79
2022/09/24 13:19:26;;;;;;;3.95;3.50;;;21.30;98.40;;;;;;5055892;28;20240;-79
2022/09/24 13:21:56;;;;;;;7.95;4.40;;;21.30;97.80;;;;;;5056478;28;20206;-80
2022/09/24 13:24:29;;;;;;;4.68;3.83;;;21.20;98.40;;;;;;5056352;28;20209;-79
2022/09/24 13:27:10;;;;;;;4.07;3.72;;;21.20;98.30;;;;;;5056137;28;20213;-79
2022/09/24 13:29:40;;;;;;;4.45;3.70;;;21.20;98.70;;;;;;5055617;28;20237;-79
2022/09/24 13:32:18;;;;;;;3.85;3.55;;;20.90;97.80;;;;;;5056061;28;20210;-79
2022/09/24 13:34:49;;;;;;;3.80;3.50;;;20.50;98.00;;;;;;5056300;28;20210;-79
2022/09/24 13:37:23;;;;;;;4.00;3.67;;;20.50;99.00;;;;;;5056286;28;20220;-79